Terminal Aerodrome Forecast
Issued by NWS

Home | Current Version | Previous Version | Text Only | Print | Product List | Glossary On
Versions: 1 2 3 4 5 6 7 8 9 10 11 12 13 14 15 16 17 18 19 20 21 22 23 24 25 26 27 28 29 30 31 32
000
FTUS43 KGLD 011721
TAFMCK
TAF
KMCK 011721Z 0118/0218 17012KT P6SM FEW070 FEW250
     FM020600 20010KT P6SM FEW035 SCT120
     FM021500 23005KT P6SM FEW080=

USA.gov is the U.S. government's official web portal to all federal, state and local government web resources and services.